sensor_id;sensor_type;location;lat;lon;timestamp;P1;durP1;ratioP1;P2;durP2;ratioP2
38338;SDS011;37117;50.050;19.924;2022-08-05T00:00:20;13.30;;;9.20;;
38338;SDS011;37117;50.050;19.924;2022-08-05T00:03:06;13.50;;;8.70;;
38338;SDS011;37117;50.050;19.924;2022-08-05T00:05:43;18.30;;;8.30;;
38338;SDS011;37117;50.050;19.924;2022-08-05T00:08:34;12.30;;;8.40;;
38338;SDS011;37117;50.050;19.924;2022-08-05T00:11:07;16.40;;;8.10;;
38338;SDS011;37117;50.050;19.924;2022-08-05T00:13:56;11.90;;;7.40;;
38338;SDS011;37117;50.050;19.924;2022-08-05T00:16:28;14.10;;;8.20;;
38338;SDS011;37117;50.050;19.924;2022-08-05T00:19:05;12.50;;;7.90;;
38338;SDS011;37117;50.050;19.924;2022-08-05T00:21:35;13.80;;;7.40;;
38338;SDS011;37117;50.050;19.924;2022-08-05T00:24:10;12.70;;;7.00;;
38338;SDS011;37117;50.050;19.924;2022-08-05T00:26:52;15.60;;;6.90;;
38338;SDS011;37117;50.050;19.924;2022-08-05T00:29:22;14.80;;;7.80;;
38338;SDS011;37117;50.050;19.924;2022-08-05T00:34:43;12.80;;;8.30;;
38338;SDS011;37117;50.050;19.924;2022-08-05T00:37:34;13.60;;;7.00;;
38338;SDS011;37117;50.050;19.924;2022-08-05T00:40:23;8.80;;;6.50;;
38338;SDS011;37117;50.050;19.924;2022-08-05T00:42:58;10.80;;;6.50;;
38338;SDS011;37117;50.050;19.924;2022-08-05T00:45:29;13.10;;;7.50;;
38338;SDS011;37117;50.050;19.924;2022-08-05T00:50:41;13.20;;;7.90;;
38338;SDS011;37117;50.050;19.924;2022-08-05T00:53:15;14.10;;;7.80;;
38338;SDS011;37117;50.050;19.924;2022-08-05T00:56:06;10.50;;;6.60;;
38338;SDS011;37117;50.050;19.924;2022-08-05T00:58:37;13.30;;;7.00;;
38338;SDS011;37117;50.050;19.924;2022-08-05T01:01:13;12.50;;;7.30;;
38338;SDS011;37117;50.050;19.924;2022-08-05T01:04:04;11.50;;;6.40;;
38338;SDS011;37117;50.050;19.924;2022-08-05T01:06:42;16.40;;;7.00;;
38338;SDS011;37117;50.050;19.924;2022-08-05T01:09:16;12.00;;;7.10;;
38338;SDS011;37117;50.050;19.924;2022-08-05T01:11:48;11.90;;;7.50;;
38338;SDS011;37117;50.050;19.924;2022-08-05T01:14:22;14.00;;;7.60;;
38338;SDS011;37117;50.050;19.924;2022-08-05T01:16:59;12.20;;;7.20;;
38338;SDS011;37117;50.050;19.924;2022-08-05T01:19:34;12.20;;;6.60;;
38338;SDS011;37117;50.050;19.924;2022-08-05T01:22:35;15.20;;;8.50;;
38338;SDS011;37117;50.050;19.924;2022-08-05T01:25:17;16.60;;;8.90;;
38338;SDS011;37117;50.050;19.924;2022-08-05T01:28:17;12.30;;;7.80;;
38338;SDS011;37117;50.050;19.924;2022-08-05T01:30:52;10.40;;;6.40;;
38338;SDS011;37117;50.050;19.924;2022-08-05T01:33:25;10.90;;;6.80;;
38338;SDS011;37117;50.050;19.924;2022-08-05T01:36:05;10.50;;;6.60;;
38338;SDS011;37117;50.050;19.924;2022-08-05T01:38:44;12.40;;;7.40;;
38338;SDS011;37117;50.050;19.924;2022-08-05T01:41:19;14.50;;;8.10;;
38338;SDS011;37117;50.050;19.924;2022-08-05T01:43:54;14.00;;;8.50;;
38338;SDS011;37117;50.050;19.924;2022-08-05T01:46:25;14.10;;;8.30;;
38338;SDS011;37117;50.050;19.924;2022-08-05T01:49:13;11.80;;;7.10;;
38338;SDS011;37117;50.050;19.924;2022-08-05T01:51:55;15.60;;;8.10;;
38338;SDS011;37117;50.050;19.924;2022-08-05T01:54:29;12.00;;;7.60;;
38338;SDS011;37117;50.050;19.924;2022-08-05T01:57:01;14.50;;;9.30;;
38338;SDS011;37117;50.050;19.924;2022-08-05T01:59:53;14.30;;;9.20;;
38338;SDS011;37117;50.050;19.924;2022-08-05T02:02:27;15.60;;;8.20;;
38338;SDS011;37117;50.050;19.924;2022-08-05T02:05:00;17.70;;;8.40;;
38338;SDS011;37117;50.050;19.924;2022-08-05T02:07:32;14.70;;;7.70;;
38338;SDS011;37117;50.050;19.924;2022-08-05T02:10:03;15.70;;;10.10;;
38338;SDS011;37117;50.050;19.924;2022-08-05T02:12:37;16.50;;;10.60;;
38338;SDS011;37117;50.050;19.924;2022-08-05T02:15:11;15.10;;;11.10;;
38338;SDS011;37117;50.050;19.924;2022-08-05T02:17:49;13.60;;;9.80;;
38338;SDS011;37117;50.050;19.924;2022-08-05T02:20:43;15.10;;;10.00;;
38338;SDS011;37117;50.050;19.924;2022-08-05T02:23:17;14.40;;;9.40;;
38338;SDS011;37117;50.050;19.924;2022-08-05T02:25:51;13.60;;;9.30;;
38338;SDS011;37117;50.050;19.924;2022-08-05T02:28:26;15.90;;;10.20;;
38338;SDS011;37117;50.050;19.924;2022-08-05T02:31:04;18.50;;;9.90;;
38338;SDS011;37117;50.050;19.924;2022-08-05T02:33:45;15.30;;;9.40;;
38338;SDS011;37117;50.050;19.924;2022-08-05T02:36:25;17.90;;;9.90;;
38338;SDS011;37117;50.050;19.924;2022-08-05T02:39:00;16.20;;;10.20;;
38338;SDS011;37117;50.050;19.924;2022-08-05T02:41:36;16.10;;;10.30;;
38338;SDS011;37117;50.050;19.924;2022-08-05T02:44:28;15.70;;;10.10;;
38338;SDS011;37117;50.050;19.924;2022-08-05T02:46:59;16.30;;;10.20;;
38338;SDS011;37117;50.050;19.924;2022-08-05T02:49:33;19.40;;;9.70;;
38338;SDS011;37117;50.050;19.924;2022-08-05T02:52:09;15.20;;;10.70;;
38338;SDS011;37117;50.050;19.924;2022-08-05T02:54:54;15.90;;;10.40;;
38338;SDS011;37117;50.050;19.924;2022-08-05T02:57:30;18.70;;;11.50;;
38338;SDS011;37117;50.050;19.924;2022-08-05T03:00:21;16.60;;;10.10;;
38338;SDS011;37117;50.050;19.924;2022-08-05T03:02:54;21.80;;;10.50;;
38338;SDS011;37117;50.050;19.924;2022-08-05T03:05:26;14.30;;;9.00;;
38338;SDS011;37117;50.050;19.924;2022-08-05T03:08:17;13.80;;;10.10;;
38338;SDS011;37117;50.050;19.924;2022-08-05T03:10:57;15.40;;;9.50;;
38338;SDS011;37117;50.050;19.924;2022-08-05T03:13:48;15.40;;;11.00;;
38338;SDS011;37117;50.050;19.924;2022-08-05T03:16:32;15.90;;;9.70;;
38338;SDS011;37117;50.050;19.924;2022-08-05T03:19:04;17.90;;;9.60;;
38338;SDS011;37117;50.050;19.924;2022-08-05T03:21:48;15.50;;;8.60;;
38338;SDS011;37117;50.050;19.924;2022-08-05T03:24:18;14.30;;;9.60;;
38338;SDS011;37117;50.050;19.924;2022-08-05T03:26:58;13.60;;;9.30;;
38338;SDS011;37117;50.050;19.924;2022-08-05T03:29:29;14.00;;;9.60;;
38338;SDS011;37117;50.050;19.924;2022-08-05T03:32:20;17.20;;;9.00;;
38338;SDS011;37117;50.050;19.924;2022-08-05T03:34:59;18.90;;;8.40;;
38338;SDS011;37117;50.050;19.924;2022-08-05T03:37:32;16.00;;;8.20;;
38338;SDS011;37117;50.050;19.924;2022-08-05T03:40:14;14.60;;;9.20;;
38338;SDS011;37117;50.050;19.924;2022-08-05T03:42:59;13.70;;;9.50;;
38338;SDS011;37117;50.050;19.924;2022-08-05T03:45:50;13.60;;;9.30;;
38338;SDS011;37117;50.050;19.924;2022-08-05T03:48:27;12.50;;;9.20;;
38338;SDS011;37117;50.050;19.924;2022-08-05T03:51:00;13.10;;;8.10;;
38338;SDS011;37117;50.050;19.924;2022-08-05T03:53:54;18.90;;;8.10;;
38338;SDS011;37117;50.050;19.924;2022-08-05T03:56:46;13.00;;;8.30;;
38338;SDS011;37117;50.050;19.924;2022-08-05T03:59:19;13.80;;;8.60;;
38338;SDS011;37117;50.050;19.924;2022-08-05T04:01:52;17.00;;;8.70;;
38338;SDS011;37117;50.050;19.924;2022-08-05T04:04:27;13.20;;;7.20;;
38338;SDS011;37117;50.050;19.924;2022-08-05T04:06:58;12.70;;;8.20;;
38338;SDS011;37117;50.050;19.924;2022-08-05T04:12:05;12.40;;;9.00;;
38338;SDS011;37117;50.050;19.924;2022-08-05T04:14:53;16.70;;;10.20;;
38338;SDS011;37117;50.050;19.924;2022-08-05T04:17:27;21.00;;;11.40;;
38338;SDS011;37117;50.050;19.924;2022-08-05T04:20:18;17.90;;;10.60;;
38338;SDS011;37117;50.050;19.924;2022-08-05T04:25:20;13.60;;;9.70;;
38338;SDS011;37117;50.050;19.924;2022-08-05T04:28:11;20.80;;;9.60;;
38338;SDS011;37117;50.050;19.924;2022-08-05T04:30:43;13.60;;;9.30;;
38338;SDS011;37117;50.050;19.924;2022-08-05T04:33:13;19.40;;;11.10;;
38338;SDS011;37117;50.050;19.924;2022-08-05T04:36:04;19.80;;;10.70;;
38338;SDS011;37117;50.050;19.924;2022-08-05T04:38:55;17.90;;;11.10;;
38338;SDS011;37117;50.050;19.924;2022-08-05T04:41:26;16.90;;;9.90;;
38338;SDS011;37117;50.050;19.924;2022-08-05T04:44:05;17.60;;;11.10;;
38338;SDS011;37117;50.050;19.924;2022-08-05T04:46:38;21.60;;;10.00;;
38338;SDS011;37117;50.050;19.924;2022-08-05T04:49:14;19.00;;;10.20;;
38338;SDS011;37117;50.050;19.924;2022-08-05T04:51:52;19.20;;;10.10;;
38338;SDS011;37117;50.050;19.924;2022-08-05T04:54:28;20.80;;;10.30;;
38338;SDS011;37117;50.050;19.924;2022-08-05T04:57:00;16.60;;;9.90;;
38338;SDS011;37117;50.050;19.924;2022-08-05T04:59:30;17.20;;;10.00;;
38338;SDS011;37117;50.050;19.924;2022-08-05T05:02:08;14.80;;;10.50;;
38338;SDS011;37117;50.050;19.924;2022-08-05T05:04:59;22.40;;;10.70;;
38338;SDS011;37117;50.050;19.924;2022-08-05T05:07:31;16.60;;;9.20;;
38338;SDS011;37117;50.050;19.924;2022-08-05T05:10:03;16.80;;;10.70;;
38338;SDS011;37117;50.050;19.924;2022-08-05T05:12:34;17.80;;;10.00;;
38338;SDS011;37117;50.050;19.924;2022-08-05T05:15:06;17.60;;;10.00;;
38338;SDS011;37117;50.050;19.924;2022-08-05T05:17:39;14.50;;;10.00;;
38338;SDS011;37117;50.050;19.924;2022-08-05T05:20:25;15.80;;;10.10;;
38338;SDS011;37117;50.050;19.924;2022-08-05T05:22:57;15.80;;;9.10;;
38338;SDS011;37117;50.050;19.924;2022-08-05T05:25:36;17.50;;;9.70;;
38338;SDS011;37117;50.050;19.924;2022-08-05T05:30:38;13.60;;;9.20;;
38338;SDS011;37117;50.050;19.924;2022-08-05T05:33:09;15.30;;;10.10;;
38338;SDS011;37117;50.050;19.924;2022-08-05T05:35:46;22.80;;;9.90;;
38338;SDS011;37117;50.050;19.924;2022-08-05T05:38:16;15.00;;;8.90;;
38338;SDS011;37117;50.050;19.924;2022-08-05T05:40:55;16.60;;;9.90;;
38338;SDS011;37117;50.050;19.924;2022-08-05T05:43:26;18.20;;;10.00;;
38338;SDS011;37117;50.050;19.924;2022-08-05T05:46:16;15.30;;;9.40;;
38338;SDS011;37117;50.050;19.924;2022-08-05T05:48:49;16.10;;;9.10;;
38338;SDS011;37117;50.050;19.924;2022-08-05T05:51:21;17.10;;;9.60;;
38338;SDS011;37117;50.050;19.924;2022-08-05T05:53:51;18.80;;;9.80;;
38338;SDS011;37117;50.050;19.924;2022-08-05T05:56:28;14.50;;;9.50;;
38338;SDS011;37117;50.050;19.924;2022-08-05T05:59:03;14.00;;;9.00;;
38338;SDS011;37117;50.050;19.924;2022-08-05T06:01:36;15.50;;;8.50;;
38338;SDS011;37117;50.050;19.924;2022-08-05T06:04:08;14.30;;;8.30;;
38338;SDS011;37117;50.050;19.924;2022-08-05T06:09:15;17.00;;;8.90;;
38338;SDS011;37117;50.050;19.924;2022-08-05T06:12:06;18.20;;;8.20;;
38338;SDS011;37117;50.050;19.924;2022-08-05T06:14:40;18.70;;;8.40;;
38338;SDS011;37117;50.050;19.924;2022-08-05T06:17:13;16.90;;;8.20;;
38338;SDS011;37117;50.050;19.924;2022-08-05T06:19:52;13.90;;;8.90;;
38338;SDS011;37117;50.050;19.924;2022-08-05T06:22:28;18.30;;;8.10;;
38338;SDS011;37117;50.050;19.924;2022-08-05T06:25:02;16.20;;;7.90;;
38338;SDS011;37117;50.050;19.924;2022-08-05T06:27:53;18.30;;;8.20;;
38338;SDS011;37117;50.050;19.924;2022-08-05T06:30:43;18.20;;;8.30;;
38338;SDS011;37117;50.050;19.924;2022-08-05T06:33:14;24.30;;;8.50;;
38338;SDS011;37117;50.050;19.924;2022-08-05T06:35:48;21.10;;;7.80;;
38338;SDS011;37117;50.050;19.924;2022-08-05T06:38:36;12.40;;;7.10;;
38338;SDS011;37117;50.050;19.924;2022-08-05T06:41:15;15.80;;;6.90;;
38338;SDS011;37117;50.050;19.924;2022-08-05T06:43:45;16.10;;;6.70;;
38338;SDS011;37117;50.050;19.924;2022-08-05T06:46:28;18.30;;;6.40;;
38338;SDS011;37117;50.050;19.924;2022-08-05T06:49:00;14.10;;;6.50;;
38338;SDS011;37117;50.050;19.924;2022-08-05T06:51:35;17.30;;;6.70;;
38338;SDS011;37117;50.050;19.924;2022-08-05T06:54:08;21.00;;;6.80;;
38338;SDS011;37117;50.050;19.924;2022-08-05T06:56:47;16.60;;;6.50;;
38338;SDS011;37117;50.050;19.924;2022-08-05T06:59:37;11.40;;;7.00;;
38338;SDS011;37117;50.050;19.924;2022-08-05T07:02:24;10.70;;;5.90;;
38338;SDS011;37117;50.050;19.924;2022-08-05T07:04:57;13.10;;;5.60;;
38338;SDS011;37117;50.050;19.924;2022-08-05T07:07:28;11.70;;;5.60;;
38338;SDS011;37117;50.050;19.924;2022-08-05T07:10:11;11.20;;;5.70;;
38338;SDS011;37117;50.050;19.924;2022-08-05T07:12:44;14.60;;;6.20;;
38338;SDS011;37117;50.050;19.924;2022-08-05T07:15:33;10.80;;;6.20;;
38338;SDS011;37117;50.050;19.924;2022-08-05T07:18:32;13.50;;;5.90;;
38338;SDS011;37117;50.050;19.924;2022-08-05T07:21:05;10.00;;;6.70;;
38338;SDS011;37117;50.050;19.924;2022-08-05T07:23:37;14.60;;;5.60;;
38338;SDS011;37117;50.050;19.924;2022-08-05T07:26:17;15.20;;;5.80;;
38338;SDS011;37117;50.050;19.924;2022-08-05T07:28:53;12.20;;;5.40;;
38338;SDS011;37117;50.050;19.924;2022-08-05T07:31:27;19.50;;;6.30;;
38338;SDS011;37117;50.050;19.924;2022-08-05T07:34:18;17.50;;;6.10;;
38338;SDS011;37117;50.050;19.924;2022-08-05T07:36:56;19.50;;;6.20;;
38338;SDS011;37117;50.050;19.924;2022-08-05T07:39:28;14.00;;;6.00;;
38338;SDS011;37117;50.050;19.924;2022-08-05T07:42:19;12.80;;;5.50;;
38338;SDS011;37117;50.050;19.924;2022-08-05T07:45:02;14.50;;;6.00;;
38338;SDS011;37117;50.050;19.924;2022-08-05T07:47:38;8.60;;;5.60;;
38338;SDS011;37117;50.050;19.924;2022-08-05T07:50:10;11.00;;;5.60;;
38338;SDS011;37117;50.050;19.924;2022-08-05T07:52:44;11.70;;;5.50;;
38338;SDS011;37117;50.050;19.924;2022-08-05T07:55:16;13.60;;;4.90;;
38338;SDS011;37117;50.050;19.924;2022-08-05T07:58:06;9.80;;;5.10;;
38338;SDS011;37117;50.050;19.924;2022-08-05T08:00:57;9.70;;;5.30;;
38338;SDS011;37117;50.050;19.924;2022-08-05T08:03:34;10.00;;;5.50;;
38338;SDS011;37117;50.050;19.924;2022-08-05T08:06:13;10.20;;;5.60;;
38338;SDS011;37117;50.050;19.924;2022-08-05T08:08:44;9.30;;;5.00;;
38338;SDS011;37117;50.050;19.924;2022-08-05T08:13:55;13.10;;;5.60;;
38338;SDS011;37117;50.050;19.924;2022-08-05T08:16:28;12.80;;;6.60;;
38338;SDS011;37117;50.050;19.924;2022-08-05T08:19:19;9.90;;;5.70;;
38338;SDS011;37117;50.050;19.924;2022-08-05T08:22:10;10.70;;;5.00;;
38338;SDS011;37117;50.050;19.924;2022-08-05T08:24:44;12.80;;;4.90;;
38338;SDS011;37117;50.050;19.924;2022-08-05T08:27:19;11.60;;;5.10;;
38338;SDS011;37117;50.050;19.924;2022-08-05T08:30:07;10.40;;;5.10;;
38338;SDS011;37117;50.050;19.924;2022-08-05T08:32:59;9.40;;;5.10;;
38338;SDS011;37117;50.050;19.924;2022-08-05T08:35:36;9.40;;;5.80;;
38338;SDS011;37117;50.050;19.924;2022-08-05T08:38:09;11.60;;;5.10;;
38338;SDS011;37117;50.050;19.924;2022-08-05T08:40:45;14.70;;;6.20;;
38338;SDS011;37117;50.050;19.924;2022-08-05T08:43:19;16.50;;;5.20;;
38338;SDS011;37117;50.050;19.924;2022-08-05T08:46:10;11.20;;;4.60;;
38338;SDS011;37117;50.050;19.924;2022-08-05T08:48:44;14.70;;;5.60;;
38338;SDS011;37117;50.050;19.924;2022-08-05T08:51:35;9.00;;;5.20;;
38338;SDS011;37117;50.050;19.924;2022-08-05T08:54:28;10.00;;;5.30;;
38338;SDS011;37117;50.050;19.924;2022-08-05T08:57:00;10.30;;;5.30;;
38338;SDS011;37117;50.050;19.924;2022-08-05T08:59:30;12.40;;;5.60;;
38338;SDS011;37117;50.050;19.924;2022-08-05T09:02:03;12.60;;;5.10;;
38338;SDS011;37117;50.050;19.924;2022-08-05T09:04:37;11.50;;;5.30;;
38338;SDS011;37117;50.050;19.924;2022-08-05T09:07:28;7.50;;;4.90;;
38338;SDS011;37117;50.050;19.924;2022-08-05T09:10:08;13.00;;;5.60;;
38338;SDS011;37117;50.050;19.924;2022-08-05T09:12:39;7.70;;;5.00;;
38338;SDS011;37117;50.050;19.924;2022-08-05T09:15:10;11.10;;;5.50;;
38338;SDS011;37117;50.050;19.924;2022-08-05T09:17:43;9.80;;;4.80;;
38338;SDS011;37117;50.050;19.924;2022-08-05T09:20:18;8.10;;;5.20;;
38338;SDS011;37117;50.050;19.924;2022-08-05T09:23:07;12.20;;;5.20;;
38338;SDS011;37117;50.050;19.924;2022-08-05T09:25:49;10.00;;;4.90;;
38338;SDS011;37117;50.050;19.924;2022-08-05T09:28:32;10.30;;;5.60;;
38338;SDS011;37117;50.050;19.924;2022-08-05T09:31:04;9.00;;;5.20;;
38338;SDS011;37117;50.050;19.924;2022-08-05T09:33:56;9.90;;;5.60;;
38338;SDS011;37117;50.050;19.924;2022-08-05T09:39:03;8.30;;;5.30;;
38338;SDS011;37117;50.050;19.924;2022-08-05T09:41:56;10.00;;;5.70;;
38338;SDS011;37117;50.050;19.924;2022-08-05T09:44:35;14.60;;;5.30;;
38338;SDS011;37117;50.050;19.924;2022-08-05T09:47:09;9.30;;;4.90;;
38338;SDS011;37117;50.050;19.924;2022-08-05T09:49:43;8.80;;;5.40;;
38338;SDS011;37117;50.050;19.924;2022-08-05T09:52:30;11.70;;;6.10;;
38338;SDS011;37117;50.050;19.924;2022-08-05T09:55:03;7.60;;;5.30;;
38338;SDS011;37117;50.050;19.924;2022-08-05T09:57:54;7.90;;;5.10;;
38338;SDS011;37117;50.050;19.924;2022-08-05T10:02:58;7.60;;;4.90;;
38338;SDS011;37117;50.050;19.924;2022-08-05T10:05:37;13.20;;;6.30;;
38338;SDS011;37117;50.050;19.924;2022-08-05T10:08:10;7.90;;;4.80;;
38338;SDS011;37117;50.050;19.924;2022-08-05T10:11:02;7.70;;;5.00;;
38338;SDS011;37117;50.050;19.924;2022-08-05T10:13:37;10.40;;;5.70;;
38338;SDS011;37117;50.050;19.924;2022-08-05T10:16:28;10.30;;;5.50;;
38338;SDS011;37117;50.050;19.924;2022-08-05T10:19:01;8.50;;;4.90;;
38338;SDS011;37117;50.050;19.924;2022-08-05T10:21:39;6.20;;;4.40;;
38338;SDS011;37117;50.050;19.924;2022-08-05T10:24:10;8.50;;;4.90;;
38338;SDS011;37117;50.050;19.924;2022-08-05T10:26:43;8.10;;;4.80;;
38338;SDS011;37117;50.050;19.924;2022-08-05T10:29:20;8.20;;;4.90;;
38338;SDS011;37117;50.050;19.924;2022-08-05T10:32:11;8.40;;;5.10;;
38338;SDS011;37117;50.050;19.924;2022-08-05T10:35:02;12.50;;;4.80;;
38338;SDS011;37117;50.050;19.924;2022-08-05T10:37:33;7.80;;;4.70;;
38338;SDS011;37117;50.050;19.924;2022-08-05T10:40:17;8.50;;;4.90;;
38338;SDS011;37117;50.050;19.924;2022-08-05T10:42:57;6.60;;;5.10;;
38338;SDS011;37117;50.050;19.924;2022-08-05T10:45:32;8.10;;;4.30;;
38338;SDS011;37117;50.050;19.924;2022-08-05T10:48:28;6.10;;;5.20;;
38338;SDS011;37117;50.050;19.924;2022-08-05T10:51:20;8.20;;;5.40;;
38338;SDS011;37117;50.050;19.924;2022-08-05T10:53:58;8.20;;;4.50;;
38338;SDS011;37117;50.050;19.924;2022-08-05T10:56:50;9.70;;;5.60;;
38338;SDS011;37117;50.050;19.924;2022-08-05T10:59:25;5.70;;;4.40;;
38338;SDS011;37117;50.050;19.924;2022-08-05T11:05:07;6.30;;;4.50;;
38338;SDS011;37117;50.050;19.924;2022-08-05T11:10:28;6.80;;;4.40;;
38338;SDS011;37117;50.050;19.924;2022-08-05T11:12:59;6.60;;;4.40;;
38338;SDS011;37117;50.050;19.924;2022-08-05T11:15:30;5.60;;;3.80;;
38338;SDS011;37117;50.050;19.924;2022-08-05T11:20:53;7.40;;;4.00;;
38338;SDS011;37117;50.050;19.924;2022-08-05T11:23:26;5.10;;;3.70;;
38338;SDS011;37117;50.050;19.924;2022-08-05T11:26:20;6.70;;;3.80;;
38338;SDS011;37117;50.050;19.924;2022-08-05T11:29:02;6.10;;;4.20;;
38338;SDS011;37117;50.050;19.924;2022-08-05T11:31:42;6.20;;;3.90;;
38338;SDS011;37117;50.050;19.924;2022-08-05T11:34:38;5.30;;;3.50;;
38338;SDS011;37117;50.050;19.924;2022-08-05T11:43:20;8.80;;;3.70;;
38338;SDS011;37117;50.050;19.924;2022-08-05T11:46:11;5.50;;;3.20;;
38338;SDS011;37117;50.050;19.924;2022-08-05T11:49:01;4.70;;;3.20;;
38338;SDS011;37117;50.050;19.924;2022-08-05T11:51:33;7.40;;;3.00;;
38338;SDS011;37117;50.050;19.924;2022-08-05T11:54:13;6.30;;;3.70;;
38338;SDS011;37117;50.050;19.924;2022-08-05T11:56:50;7.60;;;4.10;;
38338;SDS011;37117;50.050;19.924;2022-08-05T11:59:21;9.90;;;3.60;;
38338;SDS011;37117;50.050;19.924;2022-08-05T12:01:56;8.10;;;3.50;;
38338;SDS011;37117;50.050;19.924;2022-08-05T12:04:38;6.40;;;3.90;;
38338;SDS011;37117;50.050;19.924;2022-08-05T12:07:11;5.30;;;3.50;;
38338;SDS011;37117;50.050;19.924;2022-08-05T12:09:45;5.70;;;3.30;;
38338;SDS011;37117;50.050;19.924;2022-08-05T12:12:22;7.70;;;3.30;;
38338;SDS011;37117;50.050;19.924;2022-08-05T12:14:54;6.40;;;3.10;;
38338;SDS011;37117;50.050;19.924;2022-08-05T12:17:25;4.80;;;3.10;;
38338;SDS011;37117;50.050;19.924;2022-08-05T12:20:17;5.70;;;2.90;;
38338;SDS011;37117;50.050;19.924;2022-08-05T12:23:07;8.70;;;3.60;;
38338;SDS011;37117;50.050;19.924;2022-08-05T12:25:49;5.40;;;3.10;;
38338;SDS011;37117;50.050;19.924;2022-08-05T12:28:31;4.80;;;2.80;;
38338;SDS011;37117;50.050;19.924;2022-08-05T12:31:02;9.60;;;3.00;;
38338;SDS011;37117;50.050;19.924;2022-08-05T12:33:33;6.70;;;2.90;;
38338;SDS011;37117;50.050;19.924;2022-08-05T12:36:07;4.40;;;2.50;;
38338;SDS011;37117;50.050;19.924;2022-08-05T12:38:38;4.70;;;2.90;;
38338;SDS011;37117;50.050;19.924;2022-08-05T12:41:10;4.30;;;2.50;;
38338;SDS011;37117;50.050;19.924;2022-08-05T12:46:32;5.10;;;2.60;;
38338;SDS011;37117;50.050;19.924;2022-08-05T12:49:06;5.00;;;2.60;;
38338;SDS011;37117;50.050;19.924;2022-08-05T12:51:46;4.90;;;2.90;;
38338;SDS011;37117;50.050;19.924;2022-08-05T12:54:40;5.10;;;2.90;;
38338;SDS011;37117;50.050;19.924;2022-08-05T12:57:12;4.80;;;2.90;;
38338;SDS011;37117;50.050;19.924;2022-08-05T12:59:44;5.90;;;2.40;;
38338;SDS011;37117;50.050;19.924;2022-08-05T13:02:35;4.20;;;2.40;;
38338;SDS011;37117;50.050;19.924;2022-08-05T13:05:08;5.10;;;2.80;;
38338;SDS011;37117;50.050;19.924;2022-08-05T13:07:43;7.80;;;4.10;;
38338;SDS011;37117;50.050;19.924;2022-08-05T13:10:29;6.10;;;2.80;;
38338;SDS011;37117;50.050;19.924;2022-08-05T13:13:00;4.40;;;2.40;;
38338;SDS011;37117;50.050;19.924;2022-08-05T13:15:38;6.60;;;3.50;;
38338;SDS011;37117;50.050;19.924;2022-08-05T13:18:19;6.10;;;2.70;;
38338;SDS011;37117;50.050;19.924;2022-08-05T13:20:52;9.00;;;3.10;;
38338;SDS011;37117;50.050;19.924;2022-08-05T13:23:22;4.50;;;2.50;;
38338;SDS011;37117;50.050;19.924;2022-08-05T13:25:53;5.10;;;2.60;;
38338;SDS011;37117;50.050;19.924;2022-08-05T13:28:28;6.60;;;2.90;;
38338;SDS011;37117;50.050;19.924;2022-08-05T13:31:00;5.90;;;2.70;;
38338;SDS011;37117;50.050;19.924;2022-08-05T13:33:38;4.70;;;2.70;;
38338;SDS011;37117;50.050;19.924;2022-08-05T13:36:30;6.60;;;2.90;;
38338;SDS011;37117;50.050;19.924;2022-08-05T13:39:02;4.80;;;2.80;;
38338;SDS011;37117;50.050;19.924;2022-08-05T13:41:53;4.60;;;2.70;;
38338;SDS011;37117;50.050;19.924;2022-08-05T13:44:23;4.70;;;2.90;;
38338;SDS011;37117;50.050;19.924;2022-08-05T13:46:54;6.10;;;2.90;;
38338;SDS011;37117;50.050;19.924;2022-08-05T13:49:36;5.30;;;2.80;;
38338;SDS011;37117;50.050;19.924;2022-08-05T13:52:15;5.90;;;3.10;;
38338;SDS011;37117;50.050;19.924;2022-08-05T13:54:46;4.50;;;2.60;;
38338;SDS011;37117;50.050;19.924;2022-08-05T13:57:21;7.10;;;2.80;;
38338;SDS011;37117;50.050;19.924;2022-08-05T13:59:52;4.40;;;2.90;;
38338;SDS011;37117;50.050;19.924;2022-08-05T14:02:37;4.90;;;2.60;;
38338;SDS011;37117;50.050;19.924;2022-08-05T14:05:08;5.70;;;2.80;;
38338;SDS011;37117;50.050;19.924;2022-08-05T14:08:03;6.10;;;2.90;;
38338;SDS011;37117;50.050;19.924;2022-08-05T14:10:48;8.10;;;3.20;;
38338;SDS011;37117;50.050;19.924;2022-08-05T14:13:19;5.60;;;2.40;;
38338;SDS011;37117;50.050;19.924;2022-08-05T14:15:51;6.20;;;3.00;;
38338;SDS011;37117;50.050;19.924;2022-08-05T14:18:37;5.00;;;2.70;;
38338;SDS011;37117;50.050;19.924;2022-08-05T14:21:09;6.00;;;2.90;;
38338;SDS011;37117;50.050;19.924;2022-08-05T14:24:00;6.80;;;3.00;;
38338;SDS011;37117;50.050;19.924;2022-08-05T14:26:32;8.00;;;2.90;;
38338;SDS011;37117;50.050;19.924;2022-08-05T14:29:09;5.80;;;3.10;;
38338;SDS011;37117;50.050;19.924;2022-08-05T14:31:45;5.20;;;2.70;;
38338;SDS011;37117;50.050;19.924;2022-08-05T14:34:35;6.30;;;2.90;;
38338;SDS011;37117;50.050;19.924;2022-08-05T14:37:08;4.70;;;3.20;;
38338;SDS011;37117;50.050;19.924;2022-08-05T14:39:42;4.90;;;2.80;;
38338;SDS011;37117;50.050;19.924;2022-08-05T14:42:21;7.60;;;3.00;;
38338;SDS011;37117;50.050;19.924;2022-08-05T14:44:53;5.20;;;3.10;;
38338;SDS011;37117;50.050;19.924;2022-08-05T14:47:24;6.20;;;2.90;;
38338;SDS011;37117;50.050;19.924;2022-08-05T14:50:15;6.10;;;3.00;;
38338;SDS011;37117;50.050;19.924;2022-08-05T14:52:47;5.70;;;2.70;;
38338;SDS011;37117;50.050;19.924;2022-08-05T14:55:26;8.30;;;3.00;;
38338;SDS011;37117;50.050;19.924;2022-08-05T14:58:08;5.10;;;2.80;;
38338;SDS011;37117;50.050;19.924;2022-08-05T15:00:42;4.50;;;2.80;;
38338;SDS011;37117;50.050;19.924;2022-08-05T15:03:28;7.00;;;2.50;;
38338;SDS011;37117;50.050;19.924;2022-08-05T15:06:07;5.70;;;2.80;;
38338;SDS011;37117;50.050;19.924;2022-08-05T15:08:44;5.10;;;2.80;;
38338;SDS011;37117;50.050;19.924;2022-08-05T15:11:32;5.90;;;2.80;;
38338;SDS011;37117;50.050;19.924;2022-08-05T15:14:21;5.30;;;3.40;;
38338;SDS011;37117;50.050;19.924;2022-08-05T15:17:11;7.60;;;3.20;;
38338;SDS011;37117;50.050;19.924;2022-08-05T15:20:02;6.80;;;2.90;;
38338;SDS011;37117;50.050;19.924;2022-08-05T15:25:03;6.50;;;3.00;;
38338;SDS011;37117;50.050;19.924;2022-08-05T15:27:42;6.30;;;3.30;;
38338;SDS011;37117;50.050;19.924;2022-08-05T15:30:23;4.90;;;3.40;;
38338;SDS011;37117;50.050;19.924;2022-08-05T15:32:53;7.20;;;3.30;;
38338;SDS011;37117;50.050;19.924;2022-08-05T15:35:25;7.30;;;3.20;;
38338;SDS011;37117;50.050;19.924;2022-08-05T15:38:05;5.40;;;3.50;;
38338;SDS011;37117;50.050;19.924;2022-08-05T15:40:56;8.30;;;3.40;;
38338;SDS011;37117;50.050;19.924;2022-08-05T15:43:47;7.30;;;3.80;;
38338;SDS011;37117;50.050;19.924;2022-08-05T15:46:19;7.50;;;3.20;;
38338;SDS011;37117;50.050;19.924;2022-08-05T15:48:53;5.50;;;3.60;;
38338;SDS011;37117;50.050;19.924;2022-08-05T15:51:37;6.30;;;3.20;;
38338;SDS011;37117;50.050;19.924;2022-08-05T15:54:28;5.10;;;3.20;;
38338;SDS011;37117;50.050;19.924;2022-08-05T15:57:03;6.90;;;3.70;;
38338;SDS011;37117;50.050;19.924;2022-08-05T15:59:37;5.20;;;3.50;;
38338;SDS011;37117;50.050;19.924;2022-08-05T16:02:09;8.10;;;3.70;;
38338;SDS011;37117;50.050;19.924;2022-08-05T16:04:53;6.40;;;2.90;;
38338;SDS011;37117;50.050;19.924;2022-08-05T16:07:24;6.10;;;3.20;;
38338;SDS011;37117;50.050;19.924;2022-08-05T16:09:57;6.40;;;3.60;;
38338;SDS011;37117;50.050;19.924;2022-08-05T16:12:28;5.90;;;3.60;;
38338;SDS011;37117;50.050;19.924;2022-08-05T16:15:00;5.80;;;3.50;;